createdAt,value
2016-09-13T00:00:50.012Z,20.62
2016-09-13T00:01:49.692Z,20.65
2016-09-13T00:02:49.684Z,20.54
2016-09-13T00:03:50.000Z,20.64
2016-09-13T00:04:49.668Z,20.62
2016-09-13T00:05:49.659Z,20.54
2016-09-13T00:06:49.674Z,20.51
2016-09-13T00:07:49.647Z,20.51
2016-09-13T00:08:49.649Z,20.46
2016-09-13T00:09:49.637Z,20.51
2016-09-13T00:10:49.949Z,20.49
2016-09-13T00:11:49.638Z,20.47
2016-09-13T00:12:49.616Z,20.41
2016-09-13T00:13:49.616Z,20.39
2016-09-13T00:14:49.932Z,20.41
2016-09-13T00:15:49.603Z,20.35
2016-09-13T00:16:50.222Z,20.38
2016-09-13T00:17:49.901Z,20.49
2016-09-13T00:18:49.579Z,20.41
2016-09-13T00:19:49.884Z,20.35
2016-09-13T00:20:49.566Z,20.27
2016-09-13T00:21:49.564Z,20.28
2016-09-13T00:22:49.554Z,20.27
2016-09-13T00:23:49.751Z,20.28
2016-09-13T00:24:49.536Z,20.28
2016-09-13T00:25:49.560Z,20.31
2016-09-13T00:26:49.527Z,20.27
2016-09-13T00:27:49.519Z,20.25
2016-09-13T00:28:49.515Z,20.24
2016-09-13T00:29:49.502Z,20.28
2016-09-13T00:30:49.502Z,20.25
2016-09-13T00:31:49.491Z,20.25
2016-09-13T00:32:49.485Z,20.27
2016-09-13T00:33:49.792Z,20.13
2016-09-13T00:34:49.794Z,20.1
2016-09-13T00:35:49.465Z,20.16
2016-09-13T00:36:49.461Z,20.06
2016-09-13T00:37:49.766Z,20.08
2016-09-13T00:38:49.762Z,20.15
2016-09-13T00:39:49.441Z,19.95
2016-09-13T00:40:49.430Z,20.06
2016-09-13T00:41:49.425Z,20.06
2016-09-13T00:42:49.413Z,20.03
2016-09-13T00:43:49.417Z,19.95
2016-09-13T00:44:49.403Z,19.94
2016-09-13T00:45:49.392Z,19.98
2016-09-13T00:46:49.392Z,19.93
2016-09-13T00:47:49.381Z,19.94
2016-09-13T00:48:49.699Z,19.91
2016-09-13T00:49:49.377Z,19.91
2016-09-13T00:50:49.679Z,19.84
2016-09-13T00:51:49.675Z,19.83
2016-09-13T00:52:49.353Z,19.87
2016-09-13T00:53:49.348Z,19.79
2016-09-13T00:54:49.336Z,19.84
2016-09-13T00:55:49.328Z,19.8
2016-09-13T00:56:49.332Z,19.8
2016-09-13T00:57:49.627Z,19.8
2016-09-13T00:58:49.623Z,19.7
2016-09-13T00:59:49.616Z,19.73
2016-09-13T01:00:49.614Z,19.73
2016-09-13T01:01:49.602Z,19.72
2016-09-13T01:02:49.284Z,19.63
2016-09-13T01:03:49.272Z,19.66
2016-09-13T01:04:49.581Z,19.61
2016-09-13T01:05:49.573Z,19.63
2016-09-13T01:06:49.252Z,19.68
2016-09-13T01:07:49.242Z,19.61
2016-09-13T01:08:49.238Z,19.65
2016-09-13T01:09:49.547Z,19.6
2016-09-13T01:10:49.546Z,19.6
2016-09-13T01:11:49.219Z,19.63
2016-09-13T01:12:49.206Z,19.61
2016-09-13T01:13:49.203Z,19.47
2016-09-13T01:14:49.195Z,19.6
2016-09-13T01:15:49.183Z,19.55
2016-09-13T01:16:49.184Z,19.5
2016-09-13T01:17:49.173Z,19.55
2016-09-13T01:18:49.483Z,19.46
2016-09-13T01:19:49.474Z,19.48
2016-09-13T01:20:49.467Z,19.54
2016-09-13T01:21:49.150Z,19.51
2016-09-13T01:22:49.139Z,19.42
2016-09-13T01:23:49.447Z,19.38
2016-09-13T01:24:49.131Z,19.42
2016-09-13T01:25:49.118Z,19.46
2016-09-13T01:26:49.429Z,19.4
2016-09-13T01:27:49.106Z,19.35
2016-09-13T01:28:49.411Z,19.46
2016-09-13T01:29:49.091Z,19.36
2016-09-13T01:30:49.400Z,19.32
2016-09-13T01:31:49.081Z,19.43
2016-09-13T01:32:49.694Z,19.47
2016-09-13T01:33:49.063Z,19.38
2016-09-13T01:34:49.052Z,19.4
2016-09-13T01:35:49.051Z,19.38
2016-09-13T01:36:49.039Z,19.36
2016-09-13T01:37:49.034Z,19.36
2016-09-13T01:38:49.339Z,19.38
2016-09-13T01:39:49.016Z,19.36
2016-09-13T01:40:49.322Z,19.38
2016-09-13T01:41:49.004Z,19.32
2016-09-13T01:42:49.000Z,19.36
2016-09-13T01:43:48.992Z,19.33
2016-09-13T01:44:49.289Z,19.29
2016-09-13T01:45:49.287Z,19.35
2016-09-13T01:46:48.969Z,19.35
2016-09-13T01:47:48.958Z,19.36
2016-09-13T01:48:49.267Z,19.29
2016-09-13T01:49:48.944Z,19.32
2016-09-13T01:50:48.940Z,19.31
2016-09-13T01:51:48.935Z,19.32
2016-09-13T01:52:49.239Z,19.31
2016-09-13T01:53:48.920Z,19.23
2016-09-13T01:54:48.905Z,19.23
2016-09-13T01:55:48.900Z,19.25
2016-09-13T01:56:48.895Z,19.32
2016-09-13T01:57:49.516Z,19.33
2016-09-13T01:58:48.881Z,19.35
2016-09-13T01:59:48.871Z,19.38
2016-09-13T02:00:48.864Z,19.35
2016-09-13T02:01:48.858Z,19.31
2016-09-13T02:02:49.170Z,19.32
2016-09-13T02:03:48.845Z,19.28
2016-09-13T02:04:48.836Z,19.33
2016-09-13T02:05:48.843Z,19.31
2016-09-13T02:06:48.823Z,19.28
2016-09-13T02:07:48.817Z,19.36
2016-09-13T02:08:49.128Z,19.32
2016-09-13T02:09:48.798Z,19.31
2016-09-13T02:10:48.796Z,19.35
2016-09-13T02:11:48.792Z,19.29
2016-09-13T02:12:49.101Z,19.31
2016-09-13T02:13:48.773Z,19.32
2016-09-13T02:14:48.764Z,19.28
2016-09-13T02:15:48.762Z,19.31
2016-09-13T02:16:49.077Z,19.35
2016-09-13T02:17:48.742Z,19.32
2016-09-13T02:18:48.740Z,19.33
2016-09-13T02:19:48.732Z,19.32
2016-09-13T02:20:49.033Z,19.38
2016-09-13T02:21:48.715Z,19.35
2016-09-13T02:22:49.024Z,19.33
2016-09-13T02:23:49.217Z,19.33
2016-09-13T02:24:48.695Z,19.36
2016-09-13T02:25:48.687Z,19.35
2016-09-13T02:26:48.678Z,19.38
2016-09-13T02:27:48.987Z,19.42
2016-09-13T02:28:48.980Z,19.35
2016-09-13T02:29:48.657Z,19.36
2016-09-13T02:30:48.964Z,19.4
2016-09-13T02:31:48.645Z,19.36
2016-09-13T02:32:48.947Z,19.43
2016-09-13T02:33:48.626Z,19.42
2016-09-13T02:34:48.628Z,19.33
2016-09-13T02:35:48.924Z,19.36
2016-09-13T02:36:48.933Z,19.33
2016-09-13T02:37:48.601Z,19.33
2016-09-13T02:38:48.586Z,19.29
2016-09-13T02:39:48.901Z,19.32
2016-09-13T02:40:48.577Z,19.31
2016-09-13T02:41:48.886Z,19.38
2016-09-13T02:42:48.565Z,19.33
2016-09-13T02:43:48.561Z,19.35
2016-09-13T02:44:48.548Z,19.31
2016-09-13T02:45:48.540Z,19.35
2016-09-13T02:46:48.532Z,19.32
2016-09-13T02:47:48.842Z,19.38
2016-09-13T02:48:48.833Z,19.32
2016-09-13T02:49:48.823Z,19.33
2016-09-13T02:50:48.512Z,19.31
2016-09-13T02:51:48.498Z,19.33
2016-09-13T02:52:48.497Z,19.24
2016-09-13T02:53:48.514Z,19.38
2016-09-13T02:54:48.476Z,19.28
2016-09-13T02:55:48.473Z,19.35
2016-09-13T02:56:48.471Z,19.21
2016-09-13T02:57:48.455Z,19.31
2016-09-13T02:58:48.763Z,19.33
2016-09-13T02:59:48.452Z,19.18
2016-09-13T03:00:48.437Z,19.18
2016-09-13T03:01:48.757Z,19.2
2016-09-13T03:02:48.416Z,19.18
2016-09-13T03:03:48.411Z,19.14
2016-09-13T03:04:48.406Z,19.17
2016-09-13T03:05:48.398Z,19.11
2016-09-13T03:06:48.727Z,19.1
2016-09-13T03:07:48.396Z,19.1
2016-09-13T03:08:49.015Z,19.1
2016-09-13T03:09:48.691Z,19.02
2016-09-13T03:10:48.677Z,19.05
2016-09-13T03:11:48.357Z,19.02
2016-09-13T03:12:48.659Z,19.05
2016-09-13T03:13:48.664Z,19.02
2016-09-13T03:14:48.333Z,19.05
2016-09-13T03:15:48.641Z,19.1
2016-09-13T03:16:48.632Z,18.99
2016-09-13T03:17:48.309Z,19.05
2016-09-13T03:18:48.620Z,18.97
2016-09-13T03:19:48.607Z,19.01
2016-09-13T03:20:48.938Z,19.02
2016-09-13T03:21:48.284Z,19.05
2016-09-13T03:22:48.285Z,19.05
2016-09-13T03:23:48.266Z,18.98
2016-09-13T03:24:48.264Z,19.02
2016-09-13T03:25:48.258Z,18.98
2016-09-13T03:26:48.245Z,18.9
2016-09-13T03:27:48.239Z,18.98
2016-09-13T03:28:48.544Z,18.98
2016-09-13T03:29:48.226Z,18.86
2016-09-13T03:30:48.223Z,18.91
2016-09-13T03:31:48.216Z,18.82
2016-09-13T03:32:48.201Z,18.9
2016-09-13T03:33:48.193Z,18.86
2016-09-13T03:34:48.506Z,18.87
2016-09-13T03:35:48.179Z,18.91
2016-09-13T03:36:48.486Z,18.87
2016-09-13T03:37:48.165Z,18.95
2016-09-13T03:38:48.787Z,18.86
2016-09-13T03:39:48.154Z,18.91
2016-09-13T03:40:48.450Z,18.98
2016-09-13T03:41:48.448Z,18.91
2016-09-13T03:42:48.124Z,18.94
2016-09-13T03:43:48.115Z,18.91
2016-09-13T03:44:48.113Z,18.9
2016-09-13T03:45:48.104Z,18.92
2016-09-13T03:46:48.410Z,18.94
2016-09-13T03:47:48.713Z,18.9
2016-09-13T03:48:48.084Z,18.82
2016-09-13T03:49:48.079Z,18.94
2016-09-13T03:50:48.080Z,18.91
2016-09-13T03:51:48.377Z,18.98
2016-09-13T03:52:48.366Z,18.92
2016-09-13T03:53:48.044Z,18.92
2016-09-13T03:54:48.354Z,18.97
2016-09-13T03:55:48.040Z,18.9
2016-09-13T03:56:48.027Z,18.91
2016-09-13T03:57:48.016Z,18.84
2016-09-13T03:58:48.632Z,18.87
2016-09-13T03:59:48.000Z,18.84
2016-09-13T04:00:47.994Z,18.91
2016-09-13T04:01:47.990Z,18.79
2016-09-13T04:02:47.979Z,18.92
2016-09-13T04:03:48.296Z,18.84
2016-09-13T04:04:48.278Z,18.8
2016-09-13T04:05:48.290Z,18.8
2016-09-13T04:06:48.267Z,18.82
2016-09-13T04:07:48.267Z,18.79
2016-09-13T04:08:48.247Z,18.77
2016-09-13T04:09:48.260Z,18.8
2016-09-13T04:10:47.923Z,18.86
2016-09-13T04:11:47.934Z,18.73
2016-09-13T04:12:48.231Z,18.76
2016-09-13T04:13:48.546Z,18.84
2016-09-13T04:14:47.890Z,18.73
2016-09-13T04:15:48.210Z,18.77
2016-09-13T04:16:47.920Z,18.7
2016-09-13T04:17:48.203Z,18.79
2016-09-13T04:18:47.860Z,18.83
2016-09-13T04:19:48.482Z,18.73
2016-09-13T04:20:47.843Z,18.73
2016-09-13T04:21:47.844Z,18.65
2016-09-13T04:22:47.828Z,18.76
2016-09-13T04:23:48.870Z,18.74
2016-09-13T04:24:47.818Z,18.74
2016-09-13T04:25:47.807Z,18.68
2016-09-13T04:26:47.800Z,18.73
2016-09-13T04:27:48.099Z,18.74
2016-09-13T04:28:47.782Z,18.79
2016-09-13T04:29:48.096Z,18.73
2016-09-13T04:30:47.770Z,18.79
2016-09-13T04:31:47.768Z,18.72
2016-09-13T04:32:47.750Z,18.77
2016-09-13T04:33:47.748Z,18.74
2016-09-13T04:34:47.737Z,18.72
2016-09-13T04:35:47.729Z,18.76
2016-09-13T04:36:47.732Z,18.79
2016-09-13T04:37:47.718Z,18.74
2016-09-13T04:38:48.021Z,18.74
2016-09-13T04:39:47.700Z,18.74
2016-09-13T04:40:48.011Z,18.59
2016-09-13T04:41:47.686Z,18.62
2016-09-13T04:42:48.313Z,18.7
2016-09-13T04:43:47.982Z,18.64
2016-09-13T04:44:47.663Z,18.61
2016-09-13T04:45:47.671Z,18.65
2016-09-13T04:46:47.964Z,18.72
2016-09-13T04:47:47.639Z,18.62
2016-09-13T04:48:47.636Z,18.61
2016-09-13T04:49:47.627Z,18.64
2016-09-13T04:50:47.623Z,18.62
2016-09-13T04:51:48.237Z,18.64
2016-09-13T04:52:47.600Z,18.62
2016-09-13T04:53:47.904Z,18.65
2016-09-13T04:54:47.587Z,18.65
2016-09-13T04:55:47.580Z,18.68
2016-09-13T04:56:47.883Z,18.64
2016-09-13T04:57:47.567Z,18.61
2016-09-13T04:58:47.560Z,18.55
2016-09-13T04:59:47.554Z,18.59
2016-09-13T05:00:47.549Z,18.59
2016-09-13T05:01:47.853Z,18.55
2016-09-13T05:02:47.836Z,18.57
2016-09-13T05:03:47.868Z,18.57
2016-09-13T05:04:47.509Z,18.58
2016-09-13T05:05:47.497Z,18.57
2016-09-13T05:06:47.836Z,18.61
2016-09-13T05:07:47.485Z,18.61
2016-09-13T05:08:47.475Z,18.57
2016-09-13T05:09:47.784Z,18.52
2016-09-13T05:10:47.456Z,18.58
2016-09-13T05:11:47.454Z,18.52
2016-09-13T05:12:47.503Z,18.55
2016-09-13T05:13:47.751Z,18.57
2016-09-13T05:14:47.441Z,18.57
2016-09-13T05:15:48.048Z,18.54
2016-09-13T05:16:47.417Z,18.61
2016-09-13T05:17:47.411Z,18.55
2016-09-13T05:18:47.408Z,18.5
2016-09-13T05:19:47.395Z,18.59
2016-09-13T05:20:47.396Z,18.54
2016-09-13T05:21:47.379Z,18.57
2016-09-13T05:22:47.371Z,18.59
2016-09-13T05:23:47.360Z,18.54
2016-09-13T05:24:47.674Z,18.59
2016-09-13T05:25:47.345Z,18.58
2016-09-13T05:26:47.650Z,18.58
2016-09-13T05:27:47.331Z,18.58
2016-09-13T05:28:47.321Z,18.65
2016-09-13T05:29:47.634Z,18.58
2016-09-13T05:30:47.620Z,18.55
2016-09-13T05:31:47.611Z,18.57
2016-09-13T05:32:47.297Z,18.68
2016-09-13T05:33:47.283Z,18.64
2016-09-13T05:34:47.593Z,18.54
2016-09-13T05:35:47.588Z,18.52
2016-09-13T05:36:47.263Z,18.64
2016-09-13T05:37:47.880Z,18.62
2016-09-13T05:38:47.250Z,18.59
2016-09-13T05:39:47.242Z,18.77
2016-09-13T05:40:47.235Z,18.64
2016-09-13T05:41:47.229Z,18.59
2016-09-13T05:42:47.212Z,18.64
2016-09-13T05:43:47.213Z,18.59
2016-09-13T05:44:47.199Z,18.73
2016-09-13T05:45:47.196Z,18.77
2016-09-13T05:46:47.186Z,18.76
2016-09-13T05:47:47.180Z,18.72
2016-09-13T05:48:47.792Z,18.77
2016-09-13T05:49:47.479Z,18.74
2016-09-13T05:50:47.549Z,18.83
2016-09-13T05:51:47.473Z,18.82
2016-09-13T05:52:47.464Z,18.8
2016-09-13T05:53:47.451Z,18.8
2016-09-13T05:54:47.135Z,18.82
2016-09-13T05:55:47.117Z,18.77
2016-09-13T05:56:47.117Z,18.8
2016-09-13T05:57:47.110Z,18.86
2016-09-13T05:58:47.411Z,18.79
2016-09-13T05:59:47.407Z,18.87
2016-09-13T06:00:47.549Z,18.92
2016-09-13T06:01:47.698Z,19.01
2016-09-13T06:02:47.733Z,18.84
2016-09-13T06:03:47.373Z,18.99
2016-09-13T06:04:47.058Z,18.83
2016-09-13T06:05:47.368Z,18.94
2016-09-13T06:06:47.363Z,18.94
2016-09-13T06:07:47.058Z,18.98
2016-09-13T06:08:47.026Z,18.98
2016-09-13T06:09:47.020Z,19.01
2016-09-13T06:10:47.011Z,19.08
2016-09-13T06:11:47.349Z,19.11
2016-09-13T06:12:47.046Z,19.11
2016-09-13T06:13:47.619Z,19.15
2016-09-13T06:14:46.978Z,19.13
2016-09-13T06:15:46.971Z,19.21
2016-09-13T06:16:46.967Z,19.18
2016-09-13T06:17:46.957Z,19.21
2016-09-13T06:18:47.265Z,19.33
2016-09-13T06:19:46.939Z,19.33
2016-09-13T06:20:47.251Z,19.33
2016-09-13T06:21:46.926Z,19.36
2016-09-13T06:22:46.919Z,19.4
2016-09-13T06:23:46.915Z,19.39
2016-09-13T06:24:46.907Z,19.42
2016-09-13T06:25:47.211Z,19.39
2016-09-13T06:26:47.204Z,19.47
2016-09-13T06:27:46.885Z,19.5
2016-09-13T06:28:46.878Z,19.55
2016-09-13T06:29:47.191Z,19.58
2016-09-13T06:30:47.186Z,19.61
2016-09-13T06:31:47.176Z,19.69
2016-09-13T06:32:47.170Z,19.69
2016-09-13T06:33:46.845Z,19.61
2016-09-13T06:34:47.146Z,19.68
2016-09-13T06:35:47.149Z,19.6
2016-09-13T06:36:47.133Z,19.69
2016-09-13T06:37:47.127Z,19.72
2016-09-13T06:38:46.809Z,19.76
2016-09-13T06:39:46.808Z,19.79
2016-09-13T06:40:47.103Z,19.76
2016-09-13T06:41:46.789Z,19.86
2016-09-13T06:42:47.089Z,19.86
2016-09-13T06:43:46.774Z,19.88
2016-09-13T06:44:46.763Z,19.91
2016-09-13T06:45:46.758Z,19.97
2016-09-13T06:46:46.749Z,20.02
2016-09-13T06:47:46.748Z,20.03
2016-09-13T06:48:47.051Z,20.09
2016-09-13T06:49:46.736Z,20.12
2016-09-13T06:50:46.726Z,20.13
2016-09-13T06:51:46.727Z,20.12
2016-09-13T06:52:47.029Z,20.27
2016-09-13T06:53:46.710Z,20.27
2016-09-13T06:54:46.690Z,20.34
2016-09-13T06:55:46.719Z,20.39
2016-09-13T06:56:46.680Z,20.42
2016-09-13T06:57:46.679Z,20.54
2016-09-13T06:58:46.676Z,20.61
2016-09-13T06:59:46.992Z,20.71
2016-09-13T07:00:46.969Z,20.69
2016-09-13T07:01:46.652Z,20.79
2016-09-13T07:02:46.642Z,20.8
2016-09-13T07:03:46.964Z,20.86
2016-09-13T07:04:46.631Z,20.93
2016-09-13T07:05:46.623Z,20.98
2016-09-13T07:06:46.618Z,20.98
2016-09-13T07:07:46.947Z,21.05
2016-09-13T07:08:46.620Z,21.04
2016-09-13T07:09:46.911Z,21.13
2016-09-13T07:10:46.597Z,21.19
2016-09-13T07:11:46.589Z,21.13
2016-09-13T07:12:46.628Z,21.19
2016-09-13T07:13:46.885Z,21.2
2016-09-13T07:14:46.568Z,21.23
2016-09-13T07:15:46.559Z,21.29
2016-09-13T07:16:46.555Z,21.26
2016-09-13T07:17:46.550Z,21.32
2016-09-13T07:18:46.556Z,21.3
2016-09-13T07:19:46.543Z,21.38
2016-09-13T07:20:46.541Z,21.44
2016-09-13T07:21:46.841Z,21.45
2016-09-13T07:22:46.513Z,21.56
2016-09-13T07:23:46.514Z,21.57
2016-09-13T07:24:46.822Z,21.57
2016-09-13T07:25:46.499Z,21.6
2016-09-13T07:26:46.806Z,21.61
2016-09-13T07:27:46.801Z,21.74
2016-09-13T07:28:46.789Z,21.74
2016-09-13T07:29:46.474Z,21.74
2016-09-13T07:30:46.468Z,21.78
2016-09-13T07:31:46.460Z,21.88
2016-09-13T07:32:46.768Z,21.9
2016-09-13T07:33:46.453Z,21.92
2016-09-13T07:34:46.757Z,21.97
2016-09-13T07:35:46.441Z,21.91
2016-09-13T07:36:46.436Z,21.99
2016-09-13T07:37:46.423Z,22.01
2016-09-13T07:38:46.420Z,21.99
2016-09-13T07:39:46.413Z,21.99
2016-09-13T07:40:47.043Z,22.06
2016-09-13T07:41:46.714Z,22.07
2016-09-13T07:42:46.396Z,22.1
2016-09-13T07:43:46.389Z,22.23
2016-09-13T07:44:46.697Z,22.35
2016-09-13T07:45:46.780Z,22.29
2016-09-13T07:46:47.005Z,22.31
2016-09-13T07:47:46.680Z,22.44
2016-09-13T07:48:46.358Z,22.5
2016-09-13T07:49:46.988Z,22.5
2016-09-13T07:50:46.680Z,22.59
2016-09-13T07:51:46.655Z,22.67
2016-09-13T07:52:46.341Z,22.68
2016-09-13T07:53:46.643Z,22.72
2016-09-13T07:54:46.349Z,22.67
2016-09-13T07:55:46.318Z,22.75
2016-09-13T07:56:46.317Z,22.78
2016-09-13T07:57:46.630Z,22.77
2016-09-13T07:58:46.615Z,22.9
2016-09-13T07:59:46.614Z,22.87
2016-09-13T08:00:46.293Z,22.86
2016-09-13T08:01:46.604Z,22.94
2016-09-13T08:02:46.279Z,22.96
2016-09-13T08:03:46.277Z,23.01
2016-09-13T08:04:46.576Z,23.07
2016-09-13T08:05:46.575Z,23.12
2016-09-13T08:06:46.262Z,23.12
2016-09-13T08:07:46.573Z,23.14
2016-09-13T08:08:46.563Z,23.2
2016-09-13T08:09:46.241Z,23.27
2016-09-13T08:10:46.865Z,23.34
2016-09-13T08:11:46.858Z,23.71
2016-09-13T08:12:46.538Z,24.14
2016-09-13T08:13:46.220Z,24.54
2016-09-13T08:14:46.533Z,24.95
2016-09-13T08:15:46.523Z,25.15
2016-09-13T08:16:46.532Z,25.2
2016-09-13T08:17:46.518Z,25.43
2016-09-13T08:18:46.508Z,25.61
2016-09-13T08:19:46.192Z,25.86
2016-09-13T08:20:46.183Z,26.06
2016-09-13T08:21:46.189Z,26.08
2016-09-13T08:22:46.188Z,26.35
2016-09-13T08:23:46.487Z,26.37
2016-09-13T08:24:46.683Z,26.61
2016-09-13T08:25:46.485Z,26.54
2016-09-13T08:26:46.471Z,26.52
2016-09-13T08:27:46.161Z,26.62
2016-09-13T08:28:46.493Z,26.54
2016-09-13T08:29:46.149Z,26.44
2016-09-13T08:30:46.460Z,26.36
2016-09-13T08:31:46.452Z,26.32
2016-09-13T08:32:46.135Z,26.17
2016-09-13T08:33:46.148Z,26.05
2016-09-13T08:34:46.438Z,25.89
2016-09-13T08:35:46.117Z,25.8
2016-09-13T08:36:46.115Z,25.79
2016-09-13T08:37:46.421Z,25.75
2016-09-13T08:38:46.417Z,25.74
2016-09-13T08:39:46.414Z,25.64
2016-09-13T08:40:46.409Z,25.62
2016-09-13T08:41:46.089Z,25.57
2016-09-13T08:42:46.401Z,25.62
2016-09-13T08:43:46.397Z,25.61
2016-09-13T08:44:46.078Z,25.61
2016-09-13T08:45:46.383Z,25.5
2016-09-13T08:46:46.069Z,25.54
2016-09-13T08:47:46.376Z,25.54
2016-09-13T08:48:46.373Z,25.56
2016-09-13T08:49:46.399Z,25.53
2016-09-13T08:50:46.057Z,25.56
2016-09-13T08:51:46.045Z,25.53
2016-09-13T08:52:46.048Z,25.53
2016-09-13T08:53:46.353Z,25.5
2016-09-13T08:54:46.356Z,25.5
2016-09-13T08:55:46.033Z,25.53
2016-09-13T08:56:46.339Z,25.62
2016-09-13T08:57:46.333Z,25.57
2016-09-13T08:58:46.015Z,25.62
2016-09-13T08:59:46.331Z,25.56
2016-09-13T09:00:46.317Z,25.67
2016-09-13T09:01:46.641Z,25.64
2016-09-13T09:02:46.002Z,25.69
2016-09-13T09:03:46.308Z,25.68
2016-09-13T09:04:46.319Z,25.77
2016-09-13T09:05:45.984Z,25.82
2016-09-13T09:06:45.985Z,25.8
2016-09-13T09:07:45.976Z,25.94
2016-09-13T09:08:46.286Z,25.91
2016-09-13T09:09:45.972Z,26.02
2016-09-13T09:10:45.958Z,26.11
2016-09-13T09:11:46.270Z,26.11
2016-09-13T09:12:46.263Z,26.12
2016-09-13T09:13:46.577Z,26.17
2016-09-13T09:14:46.257Z,26.21
2016-09-13T09:15:46.257Z,26.31
2016-09-13T09:16:45.933Z,26.29
2016-09-13T09:17:45.934Z,26.35
2016-09-13T09:18:45.926Z,26.46
2016-09-13T09:19:45.925Z,26.44
2016-09-13T09:20:45.929Z,26.49
2016-09-13T09:21:45.910Z,26.47
2016-09-13T09:22:45.913Z,26.5
2016-09-13T09:23:46.218Z,26.52
2016-09-13T09:24:45.904Z,26.47
2016-09-13T09:25:45.906Z,26.47
2016-09-13T09:26:45.893Z,26.47
2016-09-13T09:27:45.889Z,26.58
2016-09-13T09:28:45.883Z,26.61
2016-09-13T09:29:45.885Z,26.62
2016-09-13T09:30:45.877Z,26.62
2016-09-13T09:31:45.873Z,26.79
2016-09-13T09:32:45.870Z,26.76
2016-09-13T09:33:46.175Z,26.79
2016-09-13T09:34:46.172Z,26.84
2016-09-13T09:35:45.853Z,26.98
2016-09-13T09:36:45.847Z,26.98
2016-09-13T09:37:45.846Z,26.98
2016-09-13T09:38:45.847Z,26.94
2016-09-13T09:39:45.836Z,26.98
2016-09-13T09:40:45.838Z,26.94
2016-09-13T09:41:45.828Z,27.05
2016-09-13T09:42:45.838Z,27.19
2016-09-13T09:43:46.137Z,27.19
2016-09-13T09:44:46.134Z,27.23
2016-09-13T09:45:45.820Z,27.31
2016-09-13T09:46:45.833Z,27.26
2016-09-13T09:47:46.439Z,27.24
2016-09-13T09:48:46.117Z,27.28
2016-09-13T09:49:46.108Z,27.26
2016-09-13T09:50:46.105Z,27.26
2016-09-13T09:51:45.793Z,27.28
2016-09-13T09:52:45.784Z,27.41
2016-09-13T09:53:46.094Z,27.39
2016-09-13T09:54:45.772Z,27.46
2016-09-13T09:55:45.771Z,27.41
2016-09-13T09:56:45.764Z,27.57
2016-09-13T09:57:45.761Z,27.64
2016-09-13T09:58:45.758Z,27.64
2016-09-13T09:59:45.752Z,27.71
2016-09-13T10:00:46.065Z,27.67
2016-09-13T10:01:46.057Z,27.66
2016-09-13T10:02:46.054Z,27.69
2016-09-13T10:03:46.051Z,27.77
2016-09-13T10:04:45.744Z,27.82
2016-09-13T10:05:46.047Z,27.88
2016-09-13T10:06:45.726Z,27.88
2016-09-13T10:07:46.048Z,27.82
2016-09-13T10:08:46.042Z,27.88
2016-09-13T10:09:45.711Z,27.85
2016-09-13T10:10:45.708Z,27.86
2016-09-13T10:11:46.021Z,27.98
2016-09-13T10:12:45.701Z,28.04
2016-09-13T10:13:45.702Z,27.92
2016-09-13T10:14:45.696Z,28.1
2016-09-13T10:15:46.004Z,28.19
2016-09-13T10:16:45.685Z,28.22
2016-09-13T10:17:45.993Z,28.19
2016-09-13T10:18:45.989Z,28.21
2016-09-13T10:19:45.674Z,28.31
2016-09-13T10:20:45.675Z,28.29
2016-09-13T10:21:45.665Z,28.33
2016-09-13T10:22:45.670Z,28.31
2016-09-13T10:23:45.658Z,28.36
2016-09-13T10:24:46.174Z,28.43
2016-09-13T10:25:45.655Z,28.54
2016-09-13T10:26:45.966Z,28.6
2016-09-13T10:27:45.646Z,28.59
2016-09-13T10:28:45.963Z,28.56
2016-09-13T10:29:45.949Z,28.53
2016-09-13T10:30:45.950Z,28.4
2016-09-13T10:31:45.633Z,28.46
2016-09-13T10:32:45.627Z,28.41
2016-09-13T10:33:45.626Z,28.46
2016-09-13T10:34:45.622Z,28.44
2016-09-13T10:35:45.618Z,28.46
2016-09-13T10:36:45.926Z,28.53
2016-09-13T10:37:45.606Z,28.56
2016-09-13T10:38:45.607Z,28.69
2016-09-13T10:39:45.602Z,28.77
2016-09-13T10:40:45.604Z,28.88
2016-09-13T10:41:45.596Z,28.93
2016-09-13T10:42:45.597Z,29.11
2016-09-13T10:43:45.602Z,29.16
2016-09-13T10:44:45.902Z,29.23
2016-09-13T10:45:45.581Z,29.37
2016-09-13T10:46:45.577Z,29.34
2016-09-13T10:47:45.899Z,29.38
2016-09-13T10:48:45.572Z,29.37
2016-09-13T10:49:45.574Z,29.45
2016-09-13T10:50:45.572Z,29.55
2016-09-13T10:51:45.567Z,29.81
2016-09-13T10:52:45.575Z,29.82
2016-09-13T10:53:45.562Z,29.92
2016-09-13T10:54:45.560Z,30.11
2016-09-13T10:55:45.866Z,30.24
2016-09-13T10:56:45.557Z,30.19
2016-09-13T10:57:45.554Z,30.18
2016-09-13T10:58:45.551Z,30.15
2016-09-13T10:59:45.550Z,30.31
2016-09-13T11:00:45.556Z,30.3
2016-09-13T11:01:46.174Z,30.33
2016-09-13T11:02:45.856Z,30.47
2016-09-13T11:03:45.543Z,30.54
2016-09-13T11:04:45.855Z,30.59
2016-09-13T11:05:45.863Z,30.94
2016-09-13T11:06:45.543Z,31.26
2016-09-13T11:07:45.857Z,31.73
2016-09-13T11:08:45.866Z,32
2016-09-13T11:09:45.553Z,32.18
2016-09-13T11:10:45.549Z,32.47
2016-09-13T11:11:45.853Z,32.74
2016-09-13T11:12:45.544Z,32.93
2016-09-13T11:13:45.544Z,33.13
2016-09-13T11:14:45.551Z,33.3
2016-09-13T11:15:45.548Z,33.31
2016-09-13T11:16:45.552Z,33.39
2016-09-13T11:17:45.864Z,33.45
2016-09-13T11:18:45.865Z,33.61
2016-09-13T11:19:45.871Z,33.73
2016-09-13T11:20:45.868Z,33.74
2016-09-13T11:21:45.882Z,33.94
2016-09-13T11:22:45.559Z,34.01
2016-09-13T11:23:45.566Z,34.23
2016-09-13T11:24:45.889Z,34.41
2016-09-13T11:25:45.572Z,34.58
2016-09-13T11:26:45.574Z,34.74
2016-09-13T11:27:45.575Z,34.96
2016-09-13T11:28:45.902Z,35.23
2016-09-13T11:29:45.588Z,35.26
2016-09-13T11:30:45.902Z,35.44
2016-09-13T11:31:45.592Z,35.57
2016-09-13T11:32:45.916Z,35.79
2016-09-13T11:33:45.599Z,35.91
2016-09-13T11:34:46.231Z,36.06
2016-09-13T11:35:45.610Z,36.12
2016-09-13T11:36:45.645Z,36.26
2016-09-13T11:37:45.622Z,36.46
2016-09-13T11:38:45.623Z,36.56
2016-09-13T11:39:45.634Z,36.63
2016-09-13T11:40:45.939Z,36.77
2016-09-13T11:41:45.636Z,36.46
2016-09-13T11:42:45.644Z,36.54
2016-09-13T11:43:45.643Z,36.64
2016-09-13T11:44:45.652Z,36.91
2016-09-13T11:45:45.653Z,37.07
2016-09-13T11:46:45.668Z,37.24
2016-09-13T11:47:45.976Z,37.29
2016-09-13T11:48:45.982Z,37.5
2016-09-13T11:49:45.674Z,37.59
2016-09-13T11:50:45.991Z,37.67
2016-09-13T11:51:45.686Z,37.86
2016-09-13T11:52:45.695Z,38.01
2016-09-13T11:53:45.703Z,38.11
2016-09-13T11:54:46.025Z,38.27
2016-09-13T11:55:45.713Z,38.49
2016-09-13T11:56:45.727Z,38.71
2016-09-13T11:57:45.723Z,38.82
2016-09-13T11:58:45.742Z,39.02
2016-09-13T11:59:45.735Z,39.06
2016-09-13T12:00:45.748Z,39.03
2016-09-13T12:01:45.759Z,38.83
2016-09-13T12:02:46.076Z,38.58
2016-09-13T12:03:45.775Z,38.73
2016-09-13T12:04:46.080Z,38.95
2016-09-13T12:05:45.774Z,39.1
2016-09-13T12:06:46.102Z,39.39
2016-09-13T12:07:45.787Z,39.52
2016-09-13T12:08:46.104Z,39.55
2016-09-13T12:09:45.798Z,39.58
2016-09-13T12:10:45.806Z,39.77
2016-09-13T12:11:45.825Z,39.95
2016-09-13T12:12:45.822Z,40.23
2016-09-13T12:13:46.141Z,40.42
2016-09-13T12:14:45.835Z,40.46
2016-09-13T12:15:45.844Z,40.61
2016-09-13T12:16:46.163Z,40.64
2016-09-13T12:17:46.169Z,40.79
2016-09-13T12:18:45.864Z,40.98
2016-09-13T12:19:46.496Z,41.08
2016-09-13T12:20:46.196Z,41.12
2016-09-13T12:21:46.195Z,41.06
2016-09-13T12:22:46.200Z,40.93
2016-09-13T12:23:45.896Z,40.74
2016-09-13T12:24:46.111Z,40.87
2016-09-13T12:25:45.910Z,41.02
2016-09-13T12:26:45.920Z,41.18
2016-09-13T12:27:45.937Z,41.21
2016-09-13T12:28:45.933Z,41.24
2016-09-13T12:29:45.944Z,41.37
2016-09-13T12:30:45.948Z,41.39
2016-09-13T12:31:45.954Z,41.34
2016-09-13T12:32:45.971Z,41.5
2016-09-13T12:33:46.282Z,41.65
2016-09-13T12:34:45.998Z,41.75
2016-09-13T12:35:45.986Z,41.81
2016-09-13T12:36:45.994Z,41.82
2016-09-13T12:37:46.316Z,41.93
2016-09-13T12:38:46.011Z,41.91
2016-09-13T12:39:46.326Z,41.96
2016-09-13T12:40:46.335Z,41.91
2016-09-13T12:41:46.040Z,41.98
2016-09-13T12:42:46.038Z,42.03
2016-09-13T12:43:46.053Z,41.86
2016-09-13T12:44:46.057Z,41.61
2016-09-13T12:45:46.065Z,41.44
2016-09-13T12:46:46.383Z,41.46
2016-09-13T12:47:46.084Z,41.52
2016-09-13T12:48:46.091Z,41.49
2016-09-13T12:49:46.104Z,41.43
2016-09-13T12:50:46.418Z,41.22
2016-09-13T12:51:46.421Z,41.34
2016-09-13T12:52:46.122Z,41.37
2016-09-13T12:53:46.123Z,41.46
2016-09-13T12:54:46.446Z,41.65